Time;durP1;ratioP1;P1;durP2;ratioP2;P2;SDS_P1;SDS_P2;PMS_P1;PMS_P2;Temp;Humidity;BMP_temperature;BMP_pressure;BME280_temperature;BME280_humidity;BME280_pressure;Samples;Min_cycle;Max_cycle;Signal;HPM_P1;HPM_P2
2022/03/30 00:02:09;;;;;;;23.85;11.60;;;;;;;7.56;62.73;100706.50;5034917;28;20021;-86
2022/03/30 00:04:36;;;;;;;24.35;11.27;;;;;;;7.52;62.62;100705.69;5037734;28;20037;-86
2022/03/30 00:07:02;;;;;;;22.77;11.05;;;;;;;7.47;62.81;100697.16;5035606;28;20033;-86
2022/03/30 00:09:27;;;;;;;22.00;10.60;;;;;;;7.42;62.98;100699.81;5037063;28;20025;-85
2022/03/30 00:11:53;;;;;;;22.27;11.68;;;;;;;7.38;63.10;100705.91;5038635;28;20465;-86
2022/03/30 00:14:19;;;;;;;24.20;11.57;;;;;;;7.35;62.78;100707.69;5023079;28;20032;-86
2022/03/30 00:16:44;;;;;;;26.40;11.32;;;;;;;7.27;63.04;100705.22;5043720;28;20099;-86
2022/03/30 00:19:10;;;;;;;22.25;10.65;;;;;;;7.22;62.95;100704.41;5034723;28;20450;-86
2022/03/30 00:21:35;;;;;;;22.65;10.80;;;;;;;7.18;62.80;100713.09;5037671;28;20030;-85
2022/03/30 00:24:01;;;;;;;26.92;11.63;;;;;;;7.08;63.35;100708.06;5022720;28;20033;-86
2022/03/30 00:26:26;;;;;;;24.58;11.80;;;;;;;7.03;63.53;100712.41;5036471;28;20044;-86
2022/03/30 00:28:51;;;;;;;25.77;11.35;;;;;;;6.96;63.60;100703.88;5034693;28;20120;-86
2022/03/30 00:31:18;;;;;;;22.30;11.50;;;;;;;6.92;64.32;100704.78;5033778;28;20081;-86
2022/03/30 00:33:43;;;;;;;21.75;11.20;;;;;;;6.87;64.32;100695.38;5032822;28;20435;-86
2022/03/30 00:36:09;;;;;;;26.98;12.15;;;;;;;6.78;64.37;100698.94;5033229;28;20044;-85
2022/03/30 00:38:34;;;;;;;24.80;11.27;;;;;;;6.68;64.35;100705.97;5042882;28;20035;-86
2022/03/30 00:41:01;;;;;;;26.67;11.65;;;;;;;6.61;64.82;100704.34;5041390;28;20060;-86
2022/03/30 00:43:26;;;;;;;26.45;12.27;;;;;;;6.50;65.09;100697.53;5034477;28;20223;-85
2022/03/30 00:45:51;;;;;;;27.15;12.48;;;;;;;6.40;65.05;100695.94;5040537;28;20209;-86
2022/03/30 00:48:17;;;;;;;28.08;11.75;;;;;;;6.33;65.48;100690.00;5039522;28;20053;-85
2022/03/30 00:50:42;;;;;;;26.83;10.77;;;;;;;6.30;65.36;100687.44;5040563;28;20057;-86
2022/03/30 00:53:07;;;;;;;23.08;11.63;;;;;;;6.25;65.58;100685.78;5037242;28;20039;-86
2022/03/30 00:55:33;;;;;;;23.77;11.75;;;;;;;6.20;65.48;100691.84;5037901;28;20059;-85
2022/03/30 00:57:58;;;;;;;23.65;11.02;;;;;;;6.17;65.97;100691.84;5037207;28;20120;-86
2022/03/30 01:00:25;;;;;;;26.30;11.95;;;;;;;6.10;66.12;100692.81;5039392;28;20442;-86
2022/03/30 01:02:51;;;;;;;24.85;12.00;;;;;;;6.05;66.45;100691.97;5040989;28;20108;-85
2022/03/30 01:05:17;;;;;;;21.42;10.88;;;;;;;6.01;65.96;100679.97;5033361;28;20091;-85
2022/03/30 01:07:43;;;;;;;22.00;11.18;;;;;;;5.98;66.33;100690.31;5037831;28;20047;-85
2022/03/30 01:10:10;;;;;;;22.88;11.75;;;;;;;5.92;65.99;100686.91;5037392;28;20033;-85
2022/03/30 01:12:39;;;;;;;21.20;11.05;;;;;;;5.83;66.31;100686.97;5037016;28;20026;-86
2022/03/30 01:15:06;;;;;;;25.45;12.10;;;;;;;5.78;66.50;100679.28;5018718;28;20071;-86
2022/03/30 01:17:31;;;;;;;24.33;11.25;;;;;;;5.70;66.69;100677.63;5038559;28;20033;-86
2022/03/30 01:19:56;;;;;;;24.17;11.43;;;;;;;5.64;66.83;100681.13;5035853;28;20032;-85
2022/03/30 01:22:22;;;;;;;19.42;10.82;;;;;;;5.62;66.51;100673.41;5041976;28;20032;-85
2022/03/30 01:24:47;;;;;;;25.42;11.43;;;;;;;5.56;66.52;100672.56;5044090;28;20104;-85
2022/03/30 01:27:13;;;;;;;26.60;11.73;;;;;;;5.51;66.51;100674.34;5034991;28;20029;-86
2022/03/30 01:32:25;;;;;;;24.10;10.90;;;;;;;5.41;66.55;100663.25;5034045;28;20087;-86
2022/03/30 01:34:50;;;;;;;23.48;11.30;;;;;;;5.36;67.19;100663.28;5036523;28;20795;-85
2022/03/30 01:37:16;;;;;;;21.85;10.35;;;;;;;5.31;67.08;100662.44;5038534;28;20177;-85
2022/03/30 01:39:41;;;;;;;22.67;11.57;;;;;;;5.20;67.49;100665.09;5036337;28;20030;-85
2022/03/30 01:42:08;;;;;;;27.10;11.00;;;;;;;5.17;67.40;100654.78;5033121;28;20032;-85
2022/03/30 01:44:34;;;;;;;22.33;10.45;;;;;;;5.10;67.49;100653.13;5045043;28;20021;-85
2022/03/30 01:46:59;;;;;;;23.85;11.13;;;;;;;5.05;67.45;100665.19;5032514;28;20128;-85
2022/03/30 01:49:25;;;;;;;26.75;12.05;;;;;;;4.98;68.16;100661.78;5032404;28;20037;-85
2022/03/30 01:51:53;;;;;;;28.33;12.07;;;;;;;4.91;68.44;100653.22;5035276;28;20025;-85
2022/03/30 01:54:20;;;;;;;27.35;11.85;;;;;;;4.88;68.42;100654.94;5022694;28;20065;-85
2022/03/30 01:56:47;;;;;;;22.40;11.45;;;;;;;4.82;68.68;100650.69;5034586;28;20060;-85
2022/03/30 01:59:13;;;;;;;27.92;12.13;;;;;;;4.80;68.25;100647.25;5048518;28;20189;-85
2022/03/30 02:01:38;;;;;;;25.50;11.85;;;;;;;4.78;68.78;100646.44;5036276;28;20166;-85
2022/03/30 02:04:06;;;;;;;22.83;11.98;;;;;;;4.74;68.74;100644.72;5033356;28;20579;-85
2022/03/30 02:06:31;;;;;;;26.35;12.23;;;;;;;4.71;68.65;100649.03;5043844;28;20021;-85
2022/03/30 02:08:56;;;;;;;26.02;11.77;;;;;;;4.67;68.98;100637.03;5049542;28;20025;-85
2022/03/30 02:11:22;;;;;;;28.58;11.77;;;;;;;4.64;69.38;100639.59;5015074;28;20025;-85
2022/03/30 02:13:47;;;;;;;27.98;12.73;;;;;;;4.63;69.52;100635.31;5045267;28;20093;-85
2022/03/30 02:16:13;;;;;;;26.65;12.27;;;;;;;4.58;69.88;100633.63;5031804;28;20021;-85
2022/03/30 02:18:38;;;;;;;26.70;12.60;;;;;;;4.58;69.57;100634.50;5034086;28;20029;-85
2022/03/30 02:21:04;;;;;;;25.30;11.90;;;;;;;4.57;70.13;100632.78;5033345;28;20017;-85
2022/03/30 02:23:29;;;;;;;26.52;12.18;;;;;;;4.57;69.89;100622.47;5041532;28;20104;-85
2022/03/30 02:25:54;;;;;;;26.25;12.20;;;;;;;4.56;70.22;100616.44;5032004;28;20033;-85
2022/03/30 02:28:19;;;;;;;26.38;12.05;;;;;;;4.57;69.94;100617.31;5035894;28;20169;-85
2022/03/30 02:30:45;;;;;;;28.00;11.48;;;;;;;4.58;69.97;100619.03;5038807;28;20041;-85
2022/03/30 02:33:10;;;;;;;25.98;11.13;;;;;;;4.58;70.00;100613.88;5039697;28;20021;-85
2022/03/30 02:35:35;;;;;;;26.30;12.00;;;;;;;4.58;70.39;100601.00;5034261;28;20533;-85
2022/03/30 02:38:01;;;;;;;24.02;11.52;;;;;;;4.62;70.03;100600.09;5043362;28;20024;-85
2022/03/30 02:40:26;;;;;;;28.27;12.10;;;;;;;4.64;70.55;100598.38;5033048;28;20039;-85
2022/03/30 02:42:51;;;;;;;24.50;11.15;;;;;;;4.72;69.59;100600.91;5032555;28;20511;-85
2022/03/30 02:45:17;;;;;;;22.57;11.03;;;;;;;4.70;69.59;100598.34;5031425;28;20040;-85
2022/03/30 02:50:26;;;;;;;25.27;11.68;;;;;;;4.69;70.18;100588.06;5034328;28;20043;-85
2022/03/30 02:52:51;;;;;;;23.65;10.77;;;;;;;4.70;69.99;100590.63;5037371;28;20025;-85
2022/03/30 02:55:17;;;;;;;31.92;12.27;;;;;;;4.71;70.08;100594.91;5038698;28;20115;-85
2022/03/30 02:57:42;;;;;;;27.52;12.05;;;;;;;4.69;69.87;100590.66;5041173;28;20029;-85
2022/03/30 03:00:08;;;;;;;26.77;12.25;;;;;;;4.64;70.03;100588.06;5037551;28;20033;-85
2022/03/30 03:02:34;;;;;;;25.63;11.98;;;;;;;4.62;70.14;100591.53;5037182;28;20052;-85
2022/03/30 03:05:03;;;;;;;27.63;11.93;;;;;;;4.61;70.29;100588.09;5039432;28;20021;-85
2022/03/30 03:07:28;;;;;;;28.65;12.57;;;;;;;4.60;70.09;100577.78;5036042;28;20074;-85
2022/03/30 03:09:53;;;;;;;23.58;11.30;;;;;;;4.58;70.38;100577.81;5033517;28;20037;-85
2022/03/30 03:12:19;;;;;;;26.83;11.77;;;;;;;4.55;70.72;100577.81;5042947;28;20037;-85
2022/03/30 03:14:45;;;;;;;26.60;11.65;;;;;;;4.54;70.49;100576.09;5035270;28;20025;-85
2022/03/30 03:17:10;;;;;;;25.75;11.75;;;;;;;4.51;70.29;100577.00;5037721;28;20021;-85
2022/03/30 03:19:35;;;;;;;27.45;11.57;;;;;;;4.47;70.47;100577.00;5038589;28;20102;-85
2022/03/30 03:22:00;;;;;;;28.38;12.18;;;;;;;4.45;71.08;100578.72;5031773;28;20030;-85
2022/03/30 03:24:26;;;;;;;29.00;12.43;;;;;;;4.44;71.03;100582.19;5035310;28;20104;-86
2022/03/30 03:26:51;;;;;;;25.17;11.85;;;;;;;4.40;71.17;100574.47;5039011;28;20060;-85
2022/03/30 03:29:16;;;;;;;27.35;12.15;;;;;;;4.42;70.67;100571.03;5035299;28;20040;-85
2022/03/30 03:31:42;;;;;;;23.73;11.35;;;;;;;4.40;70.83;100564.16;5034244;28;20536;-85
2022/03/30 03:34:08;;;;;;;24.58;11.75;;;;;;;4.38;71.36;100565.00;5030387;28;20041;-85
2022/03/30 03:36:34;;;;;;;25.00;12.40;;;;;;;4.35;71.19;100571.03;5032204;28;20022;-85
2022/03/30 03:39:00;;;;;;;26.87;12.13;;;;;;;4.36;71.61;100570.19;5031223;28;20033;-85
2022/03/30 03:41:25;;;;;;;26.77;12.32;;;;;;;4.35;71.08;100565.91;5030720;28;20491;-85
2022/03/30 03:43:50;;;;;;;25.30;11.97;;;;;;;4.33;71.54;100567.63;5030821;28;20118;-85
2022/03/30 03:46:16;;;;;;;30.65;12.23;;;;;;;4.37;70.99;100563.31;5037059;28;20025;-85
2022/03/30 03:48:41;;;;;;;24.38;11.95;;;;;;;4.37;71.28;100559.03;5031549;28;20061;-85
2022/03/30 03:51:06;;;;;;;24.25;11.25;;;;;;;4.37;70.92;100553.00;5031247;28;20531;-85
2022/03/30 03:53:34;;;;;;;22.48;10.93;;;;;;;4.34;71.29;100553.88;5013172;28;20029;-85
2022/03/30 03:56:00;;;;;;;27.33;11.63;;;;;;;4.32;70.98;100550.44;5022907;28;20029;-85
2022/03/30 03:58:25;;;;;;;25.50;11.63;;;;;;;4.30;71.22;100546.19;5031530;28;20029;-85
2022/03/30 04:00:50;;;;;;;25.77;11.68;;;;;;;4.24;71.39;100549.66;5036903;28;20033;-85
2022/03/30 04:03:16;;;;;;;25.83;12.23;;;;;;;4.19;71.12;100546.22;5031092;28;20049;-85
2022/03/30 04:05:41;;;;;;;28.65;11.93;;;;;;;4.13;71.47;100547.13;5036316;28;20037;-85
2022/03/30 04:08:07;;;;;;;27.90;12.50;;;;;;;4.09;71.25;100548.84;5037167;28;20022;-85
2022/03/30 04:10:33;;;;;;;28.83;11.57;;;;;;;4.06;71.38;100538.56;5032415;28;20029;-86
2022/03/30 04:12:58;;;;;;;25.48;11.70;;;;;;;4.03;71.31;100543.72;5031551;28;20043;-85
2022/03/30 04:15:24;;;;;;;25.60;11.20;;;;;;;4.00;71.32;100541.16;5031263;28;20105;-85
2022/03/30 04:17:49;;;;;;;24.70;11.73;;;;;;;3.96;70.94;100542.00;5041358;28;20127;-85
2022/03/30 04:20:16;;;;;;;26.00;11.45;;;;;;;3.88;71.53;100529.16;5033786;28;20032;-85
2022/03/30 04:22:43;;;;;;;31.08;12.20;;;;;;;3.83;71.41;100532.63;5043604;28;20029;-85
2022/03/30 04:25:09;;;;;;;26.85;11.32;;;;;;;3.76;71.73;100535.19;5035906;28;20368;-84
2022/03/30 04:27:34;;;;;;;30.20;12.43;;;;;;;3.71;71.54;100536.94;5030245;28;20032;-86
2022/03/30 04:30:00;;;;;;;27.23;11.63;;;;;;;3.67;71.51;100529.25;5016453;28;20056;-85
2022/03/30 04:32:25;;;;;;;30.83;12.97;;;;;;;3.59;71.67;100536.94;5032082;28;20443;-84
2022/03/30 04:34:51;;;;;;;28.60;11.47;;;;;;;3.52;71.74;100536.09;5030923;28;20029;-85
2022/03/30 04:37:16;;;;;;;28.53;12.60;;;;;;;3.51;71.73;100536.13;5035950;28;20025;-85
2022/03/30 04:39:42;;;;;;;31.33;12.47;;;;;;;3.44;71.78;100536.13;5035066;28;20028;-85
2022/03/30 04:42:07;;;;;;;29.47;11.73;;;;;;;3.36;72.06;100530.16;5038366;28;20396;-85
2022/03/30 04:44:33;;;;;;;30.37;12.97;;;;;;;3.32;72.17;100538.72;5045568;28;20029;-85
2022/03/30 04:46:58;;;;;;;25.03;11.07;;;;;;;3.26;72.33;100534.44;5033987;28;20068;-85
2022/03/30 04:49:24;;;;;;;30.83;11.90;;;;;;;3.20;72.72;100539.56;5045920;28;20036;-85
2022/03/30 04:51:49;;;;;;;28.10;11.63;;;;;;;3.20;72.46;100539.56;5033306;28;20400;-85
2022/03/30 04:54:16;;;;;;;28.97;11.17;;;;;;;3.17;72.75;100540.44;5034348;28;20029;-85
2022/03/30 04:56:42;;;;;;;28.60;12.07;;;;;;;3.13;72.83;100541.28;5029921;28;20424;-85
2022/03/30 04:59:07;;;;;;;26.07;11.57;;;;;;;3.09;72.81;100542.13;5044236;28;20059;-85
2022/03/30 05:01:32;;;;;;;29.00;12.83;;;;;;;3.07;72.89;100543.00;5037328;28;21806;-85
2022/03/30 05:03:57;;;;;;;29.47;11.60;;;;;;;3.03;72.66;100548.13;5038905;28;20033;-85
2022/03/30 05:06:23;;;;;;;27.57;12.00;;;;;;;3.00;73.01;100553.28;5032265;28;20079;-85
2022/03/30 05:08:48;;;;;;;29.50;11.87;;;;;;;2.99;72.96;100548.13;5033398;28;20029;-85
2022/03/30 05:11:13;;;;;;;26.43;11.47;;;;;;;2.95;72.81;100549.00;5034040;28;20491;-84
2022/03/30 05:13:39;;;;;;;28.83;11.43;;;;;;;2.94;72.78;100542.13;5039230;28;20090;-84
2022/03/30 05:16:04;;;;;;;27.43;12.40;;;;;;;2.92;72.89;100551.53;5037646;28;20491;-87
2022/03/30 05:18:29;;;;;;;28.70;12.70;;;;;;;2.89;72.82;100542.13;5035920;28;20078;-85
2022/03/30 05:20:55;;;;;;;28.00;12.20;;;;;;;2.85;73.35;100535.28;5020820;28;20123;-85
2022/03/30 05:23:21;;;;;;;29.07;12.33;;;;;;;2.79;73.62;100541.25;5040812;28;20204;-85
2022/03/30 05:25:46;;;;;;;29.47;12.63;;;;;;;2.74;73.85;100540.38;5043935;28;20189;-85
2022/03/30 05:28:11;;;;;;;27.33;11.00;;;;;;;2.74;74.00;100532.69;5045962;28;20029;-85
2022/03/30 05:30:37;;;;;;;21.63;10.10;;;;;;;2.76;73.74;100530.97;5034105;28;20056;-85
2022/03/30 05:33:02;;;;;;;28.53;11.80;;;;;;;2.74;74.24;100530.13;5047940;28;20037;-85
2022/03/30 05:35:28;;;;;;;24.97;11.30;;;;;;;2.76;74.10;100533.53;5042515;28;20033;-86
2022/03/30 05:37:53;;;;;;;28.40;11.80;;;;;;;2.79;74.25;100525.84;5035501;28;20473;-85
2022/03/30 05:40:18;;;;;;;25.97;11.43;;;;;;;2.80;74.12;100532.69;5034915;28;20099;-85
2022/03/30 05:42:44;;;;;;;23.23;10.53;;;;;;;2.83;74.00;100524.13;5042856;28;20148;-84
2022/03/30 05:45:10;;;;;;;25.00;11.00;;;;;;;2.84;73.93;100526.72;5040657;28;20025;-85
2022/03/30 05:47:35;;;;;;;26.83;11.47;;;;;;;2.86;73.87;100525.00;5033329;28;20030;-85
2022/03/30 05:50:01;;;;;;;28.97;11.80;;;;;;;2.84;73.86;100526.72;5044833;28;20061;-84
2022/03/30 05:52:27;;;;;;;27.27;12.40;;;;;;;2.84;74.11;100528.41;5036617;28;20472;-85
2022/03/30 05:54:52;;;;;;;23.30;11.23;;;;;;;2.85;74.22;100525.88;5045866;28;20033;-85
2022/03/30 05:57:21;;;;;;;33.33;12.93;;;;;;;2.87;74.47;100520.72;5023058;28;20350;-85
2022/03/30 05:59:46;;;;;;;27.63;11.33;;;;;;;2.87;74.39;100524.16;5039353;28;20013;-85
2022/03/30 06:02:12;;;;;;;26.77;11.87;;;;;;;2.90;74.51;100527.59;5033951;28;20083;-85
2022/03/30 06:04:39;;;;;;;28.93;12.33;;;;;;;2.95;74.64;100528.44;5044830;28;20037;-85
2022/03/30 06:07:05;;;;;;;27.27;12.07;;;;;;;2.98;74.54;100534.44;5040676;28;20021;-84
2022/03/30 06:09:33;;;;;;;26.07;11.87;;;;;;;3.02;74.57;100525.03;5034448;28;20037;-84
2022/03/30 06:11:59;;;;;;;28.33;11.47;;;;;;;3.06;74.72;100526.75;5018267;28;20104;-84
2022/03/30 06:14:24;;;;;;;28.07;12.03;;;;;;;3.11;74.56;100530.16;5033723;28;20466;-84
2022/03/30 06:16:50;;;;;;;29.47;12.27;;;;;;;3.15;74.76;100529.28;5042920;28;20029;-85
2022/03/30 06:19:15;;;;;;;28.50;12.07;;;;;;;3.21;74.65;100535.31;5032612;28;20128;-84
2022/03/30 06:21:42;;;;;;;28.63;12.43;;;;;;;3.24;74.50;100545.59;5039096;28;20075;-85
2022/03/30 06:24:12;;;;;;;26.87;11.53;;;;;;;3.20;74.70;100539.56;5021511;28;20085;-85
2022/03/30 06:26:39;;;;;;;29.30;12.90;;;;;;;3.20;75.07;100539.56;5019807;28;20057;-83
2022/03/30 06:29:04;;;;;;;24.20;11.50;;;;;;;3.25;74.87;100543.00;5041532;28;20131;-83
2022/03/30 06:31:31;;;;;;;26.13;11.63;;;;;;;3.31;74.71;100537.88;5039547;28;20173;-83
2022/03/30 06:33:57;;;;;;;24.87;12.37;;;;;;;3.37;75.05;100542.16;5044866;28;20017;-83
2022/03/30 06:36:23;;;;;;;25.37;11.67;;;;;;;3.43;75.03;100538.72;5041244;28;20036;-84
2022/03/30 06:38:48;;;;;;;25.50;12.13;;;;;;;3.50;74.96;100537.84;5043966;28;20616;-85
2022/03/30 06:41:16;;;;;;;26.87;11.87;;;;;;;3.58;74.79;100532.69;5045615;28;20028;-84
2022/03/30 06:43:42;;;;;;;29.13;12.13;;;;;;;3.68;75.12;100533.50;5021336;28;20748;-83
2022/03/30 06:46:09;;;;;;;31.00;12.70;;;;;;;3.74;74.98;100531.81;5035327;28;20108;-84
2022/03/30 06:48:34;;;;;;;26.13;12.17;;;;;;;3.83;74.92;100527.47;5036836;28;20461;-84
2022/03/30 06:51:00;;;;;;;28.73;12.63;;;;;;;3.89;74.23;100524.88;5036099;28;20090;-84
2022/03/30 06:53:25;;;;;;;30.17;12.90;;;;;;;3.99;74.73;100530.88;5034309;28;20119;-84
2022/03/30 06:55:52;;;;;;;32.50;12.83;;;;;;;4.06;74.55;100535.09;5035756;28;20032;-85
2022/03/30 06:58:17;;;;;;;30.17;12.73;;;;;;;4.14;74.69;100542.81;5039929;28;20021;-85
2022/03/30 07:00:42;;;;;;;27.70;12.37;;;;;;;4.21;74.14;100547.91;5036616;28;20029;-85
2022/03/30 07:03:08;;;;;;;27.27;12.18;;;;;;;4.26;74.65;100542.78;5033462;28;20022;-85
2022/03/30 07:05:33;;;;;;;30.53;12.77;;;;;;;4.32;74.41;100544.47;5035679;28;20023;-85
2022/03/30 07:10:42;;;;;;;25.93;12.67;;;;;;;4.47;74.57;100528.06;5029913;28;20356;-85
2022/03/30 07:13:08;;;;;;;29.48;12.77;;;;;;;4.54;74.24;100529.75;5031532;28;20025;-85
2022/03/30 07:15:33;;;;;;;29.97;12.70;;;;;;;4.62;73.74;100522.81;5031583;28;20021;-85
2022/03/30 07:18:00;;;;;;;28.40;12.68;;;;;;;4.68;73.98;100533.09;5031859;28;20148;-86
2022/03/30 07:20:27;;;;;;;28.40;12.23;;;;;;;4.74;74.63;100528.75;5031557;28;20028;-85
2022/03/30 07:22:53;;;;;;;28.40;12.18;;;;;;;4.80;74.10;100520.97;5030248;28;20026;-85
2022/03/30 07:25:21;;;;;;;32.13;12.38;;;;;;;4.85;74.25;100520.09;5031876;28;20078;-85
2022/03/30 07:27:49;;;;;;;29.85;12.63;;;;;;;4.91;73.33;100518.31;5031551;28;20029;-85
2022/03/30 07:30:15;;;;;;;28.83;13.10;;;;;;;4.96;73.12;100521.72;5032425;28;20052;-86
2022/03/30 07:32:43;;;;;;;30.17;12.77;;;;;;;4.99;72.96;100522.53;5031632;28;20017;-85
2022/03/30 07:35:10;;;;;;;26.20;12.18;;;;;;;5.05;73.23;100518.22;5031369;28;20041;-85
2022/03/30 07:37:37;;;;;;;27.38;12.75;;;;;;;5.12;72.73;100517.31;5031218;28;20021;-86
2022/03/30 07:40:04;;;;;;;28.63;12.07;;;;;;;5.19;73.14;100525.84;5031621;28;20392;-85
2022/03/30 07:42:30;;;;;;;27.83;12.10;;;;;;;5.27;72.63;100526.63;5031447;28;20071;-86
2022/03/30 07:44:55;;;;;;;31.95;12.60;;;;;;;5.32;72.47;100524.88;5030243;28;20710;-85
2022/03/30 07:47:21;;;;;;;27.98;12.43;;;;;;;5.35;71.68;100523.97;5031444;28;20052;-85
2022/03/30 07:49:47;;;;;;;29.52;11.73;;;;;;;5.39;72.21;100526.50;5030767;28;20482;-86
2022/03/30 07:52:12;;;;;;;28.48;11.68;;;;;;;5.47;71.16;100518.69;5031137;28;20116;-86
2022/03/30 07:54:38;;;;;;;25.48;11.40;;;;;;;5.51;70.57;100520.38;5030850;28;20025;-85
2022/03/30 07:57:04;;;;;;;29.48;12.02;;;;;;;5.57;71.22;100525.47;5014896;28;20104;-86
2022/03/30 07:59:29;;;;;;;24.42;11.57;;;;;;;5.65;70.95;100527.97;5031315;28;20507;-86
2022/03/30 08:01:57;;;;;;;22.98;11.65;;;;;;;5.73;71.45;100526.16;5031215;28;20365;-85
2022/03/30 08:04:22;;;;;;;25.23;10.90;;;;;;;5.80;71.07;100521.81;5031036;28;21463;-85
2022/03/30 08:06:47;;;;;;;23.83;10.38;;;;;;;5.86;70.98;100529.47;5031140;28;20080;-85
2022/03/30 08:09:13;;;;;;;25.67;10.90;;;;;;;5.97;69.81;100518.19;5030825;28;20033;-85
2022/03/30 08:11:38;;;;;;;22.13;10.38;;;;;;;6.01;69.99;100509.53;5029708;28;20452;-86
2022/03/30 08:14:04;;;;;;;22.95;10.35;;;;;;;6.08;70.48;100513.75;5034926;28;20373;-86
2022/03/30 08:16:32;;;;;;;20.10;9.73;;;;;;;6.15;70.34;100511.94;5035604;28;20017;-85
2022/03/30 08:18:58;;;;;;;22.67;10.80;;;;;;;6.15;68.80;100517.97;5021375;28;20453;-86
2022/03/30 08:24:08;;;;;;;28.20;10.90;;;;;;;6.29;69.48;100520.38;5034975;28;20040;-86
2022/03/30 08:26:34;;;;;;;23.52;10.65;;;;;;;6.33;69.56;100518.59;5034679;28;20029;-86
2022/03/30 08:28:59;;;;;;;25.50;10.70;;;;;;;6.40;68.96;100524.56;5034239;28;20105;-85
2022/03/30 08:31:25;;;;;;;25.20;10.60;;;;;;;6.42;69.33;100528.81;5034801;28;20052;-86
2022/03/30 08:33:50;;;;;;;21.85;10.55;;;;;;;6.45;68.63;100526.19;5034631;28;20461;-86
2022/03/30 08:36:16;;;;;;;22.05;10.30;;;;;;;6.49;68.71;100522.69;5036634;28;20487;-86
2022/03/30 08:38:42;;;;;;;21.27;10.55;;;;;;;6.56;68.45;100527.78;5034632;28;20025;-86
2022/03/30 08:41:07;;;;;;;19.85;10.13;;;;;;;6.62;68.05;100522.53;5041987;28;20064;-86
2022/03/30 08:43:34;;;;;;;23.13;10.25;;;;;;;6.66;67.77;100516.44;5034136;28;20116;-86
2022/03/30 08:46:00;;;;;;;19.88;9.32;;;;;;;6.72;68.75;100512.91;5034267;28;20116;-86
2022/03/30 08:48:26;;;;;;;19.95;9.52;;;;;;;6.76;69.11;100507.66;5016342;28;20048;-86
2022/03/30 08:50:52;;;;;;;21.67;10.18;;;;;;;6.83;68.19;100514.41;5034837;28;20017;-86
2022/03/30 08:53:19;;;;;;;22.40;11.35;;;;;;;6.88;68.15;100505.75;5034293;28;20018;-86
2022/03/30 08:55:45;;;;;;;28.50;10.95;;;;;;;6.90;67.63;100511.75;5032078;28;20051;-86
2022/03/30 08:58:10;;;;;;;27.42;10.73;;;;;;;6.93;68.13;100512.53;5033994;28;20937;-85
2022/03/30 09:00:35;;;;;;;19.58;10.73;;;;;;;6.97;67.60;100508.19;5034467;28;20017;-86
2022/03/30 09:03:01;;;;;;;21.40;10.00;;;;;;;7.03;67.42;100513.25;5039594;28;20027;-86
2022/03/30 09:05:32;;;;;;;22.75;10.63;;;;;;;7.09;67.78;100500.22;5048945;28;20092;-86
2022/03/30 09:08:07;;;;;;;22.75;10.45;;;;;;;7.17;67.50;100504.44;5033053;28;20472;-86
2022/03/30 09:10:32;;;;;;;21.08;10.35;;;;;;;7.21;67.14;100499.16;5034967;28;20036;-86
2022/03/30 09:12:58;;;;;;;19.52;10.52;;;;;;;7.29;67.23;100499.03;5040442;28;20032;-85
2022/03/30 09:15:25;;;;;;;23.15;11.13;;;;;;;7.36;66.30;100494.59;5033739;28;20503;-86
2022/03/30 09:17:55;;;;;;;20.35;10.07;;;;;;;7.42;66.34;100500.53;5016386;28;20033;-86
2022/03/30 09:20:22;;;;;;;19.90;9.30;;;;;;;7.48;66.04;100496.97;5033786;28;20029;-86
2022/03/30 09:22:49;;;;;;;21.50;10.93;;;;;;;7.55;65.53;100495.09;5033720;28;20284;-86
2022/03/30 09:25:16;;;;;;;20.95;10.48;;;;;;;7.58;64.90;100492.47;5016291;28;20036;-86
2022/03/30 09:27:43;;;;;;;22.15;10.13;;;;;;;7.63;64.94;100487.19;5033256;28;20021;-86
2022/03/30 09:30:17;;;;;;;19.67;10.88;;;;;;;7.69;64.88;100487.09;5034690;28;20033;-86
2022/03/30 09:32:44;;;;;;;17.63;9.48;;;;;;;7.72;65.07;100480.09;5033160;28;20386;-86
2022/03/30 09:35:20;;;;;;;22.83;10.63;;;;;;;7.78;65.15;100483.47;5033937;28;20488;-86
2022/03/30 09:38:18;;;;;;;23.52;9.90;;;;;;;7.82;65.18;100480.78;5015931;28;20025;-86
2022/03/30 09:40:55;;;;;;;19.02;9.95;;;;;;;7.84;64.21;100475.59;5033306;28;20069;-86
2022/03/30 09:43:25;;;;;;;21.15;9.50;;;;;;;7.87;65.16;100471.19;5050559;28;20040;-86
2022/03/30 09:46:05;;;;;;;20.65;10.85;;;;;;;7.95;64.60;100473.63;5050263;28;20044;-86
2022/03/30 09:48:39;;;;;;;20.20;10.80;;;;;;;8.03;64.93;100466.50;5033611;28;20030;-86
2022/03/30 09:51:06;;;;;;;22.58;11.10;;;;;;;8.10;64.79;100463.81;5015991;28;20053;-86
2022/03/30 09:53:33;;;;;;;21.80;10.65;;;;;;;8.17;65.40;100457.63;5042992;28;20040;-87
2022/03/30 09:56:12;;;;;;;18.85;9.77;;;;;;;8.24;64.71;100463.50;5053347;28;20051;-87
2022/03/30 09:58:39;;;;;;;22.40;11.18;;;;;;;8.30;63.97;100461.63;5046159;28;20476;-86
2022/03/30 10:01:29;;;;;;;19.65;9.90;;;;;;;8.37;64.59;100462.34;5015611;28;20374;-86
2022/03/30 10:03:59;;;;;;;17.88;9.90;;;;;;;8.44;64.15;100460.47;5015295;28;20092;-86
2022/03/30 10:06:31;;;;;;;19.02;10.82;;;;;;;8.50;63.21;100461.19;5029384;28;20029;-86
2022/03/30 10:08:57;;;;;;;20.30;10.35;;;;;;;8.57;62.15;100461.06;5033858;28;21055;-87
2022/03/30 10:11:26;;;;;;;20.35;10.88;;;;;;;8.58;62.63;100458.44;5033055;28;20029;-86
2022/03/30 10:13:54;;;;;;;21.75;10.65;;;;;;;8.55;61.95;100455.06;5033151;28;20032;-87
2022/03/30 10:16:21;;;;;;;22.83;11.00;;;;;;;8.60;61.54;100453.22;5033735;28;20075;-86
2022/03/30 10:18:48;;;;;;;22.75;10.40;;;;;;;8.65;61.37;100449.63;5017472;28;20025;-86
2022/03/30 10:21:26;;;;;;;18.52;10.35;;;;;;;8.70;62.87;100448.66;5036658;28;20074;-86
2022/03/30 10:24:16;;;;;;;20.20;11.05;;;;;;;8.73;61.27;100441.66;5034887;28;20065;-86
2022/03/30 10:27:11;;;;;;;21.20;10.68;;;;;;;8.77;62.36;100447.59;5034206;28;20483;-87
2022/03/30 10:29:38;;;;;;;25.25;10.95;;;;;;;8.79;61.30;100440.66;5034126;28;20026;-87
2022/03/30 10:32:23;;;;;;;20.95;11.20;;;;;;;8.80;61.63;100443.19;5032796;28;20176;-86
2022/03/30 10:34:53;;;;;;;21.10;10.23;;;;;;;8.84;61.37;100441.41;5042090;28;20492;-86
2022/03/30 10:37:27;;;;;;;22.60;11.30;;;;;;;8.92;61.28;100447.22;5039496;28;20067;-86
2022/03/30 10:39:55;;;;;;;21.10;10.63;;;;;;;8.96;59.98;100433.28;5037157;28;20026;-86
2022/03/30 10:42:20;;;;;;;19.73;10.82;;;;;;;9.07;60.68;100429.56;5033072;28;20048;-86
2022/03/30 10:44:47;;;;;;;17.63;10.23;;;;;;;9.13;59.63;100426.81;5034086;28;20489;-87
2022/03/30 10:47:21;;;;;;;22.60;10.57;;;;;;;9.20;60.08;100424.91;5032174;28;20381;-86
2022/03/30 10:49:54;;;;;;;23.23;11.52;;;;;;;9.30;59.88;100420.31;5032399;28;20521;-86
2022/03/30 10:52:41;;;;;;;23.75;10.40;;;;;;;9.38;61.63;100418.38;5014219;28;20804;-86
2022/03/30 10:55:13;;;;;;;19.17;10.48;;;;;;;9.38;59.83;100415.78;5031479;28;20033;-87
2022/03/30 10:58:01;;;;;;;21.02;10.10;;;;;;;9.41;60.11;100419.13;5036263;28;20150;-86
2022/03/30 11:00:38;;;;;;;18.88;10.18;;;;;;;9.41;59.29;100413.06;5038031;28;20389;-86
2022/03/30 11:03:25;;;;;;;20.58;10.57;;;;;;;9.44;60.64;100402.59;5033124;28;20033;-86
2022/03/30 11:06:05;;;;;;;19.45;10.13;;;;;;;9.47;59.61;100402.53;5016710;28;20161;-87
2022/03/30 11:08:33;;;;;;;21.02;11.10;;;;;;;9.52;59.55;100400.66;5035131;28;20428;-86
2022/03/30 11:11:24;;;;;;;20.33;9.35;;;;;;;9.57;59.14;100388.38;5032638;28;20081;-86
2022/03/30 11:14:24;;;;;;;19.55;10.10;;;;;;;9.65;59.33;100392.50;5033534;28;20036;-86
2022/03/30 11:17:12;;;;;;;18.65;9.25;;;;;;;9.73;58.59;100385.34;5031754;28;20037;-86
2022/03/30 11:19:47;;;;;;;22.17;10.05;;;;;;;9.79;58.86;100376.53;5032896;28;20043;-86
2022/03/30 11:22:21;;;;;;;18.88;9.30;;;;;;;9.87;57.66;100369.31;5033596;28;20029;-86
2022/03/30 11:25:06;;;;;;;19.00;8.95;;;;;;;9.93;58.40;100378.69;5031941;28;20104;-86
2022/03/30 11:27:31;;;;;;;19.23;9.02;;;;;;;9.98;57.38;100367.28;5031051;28;20438;-87
2022/03/30 11:29:59;;;;;;;18.27;8.93;;;;;;;10.10;57.93;100366.00;5032156;28;20029;-86